Time;durP1;ratioP1;P1;durP2;ratioP2;P2;SDS_P1;SDS_P2;PMS_P1;PMS_P2;Temp;Humidity;BMP_temperature;BMP_pressure;BME280_temperature;BME280_humidity;BME280_pressure;Samples;Min_cycle;Max_cycle;Signal;HPM_P1;HPM_P2
2021/05/25 00:02:02;;;;;;;1.37;1.00;;;;;;;;;;5071311;28;20222;-76
2021/05/25 00:05:08;;;;;;;1.40;1.07;;;;;;;;;;5101305;28;20182;-76
2021/05/25 00:08:12;;;;;;;1.87;0.80;;;;;;;;;;5115575;28;20174;-76
2021/05/25 00:10:54;;;;;;;1.50;0.80;;;;;;;;;;5133539;27;20809;-75
2021/05/25 00:13:59;;;;;;;1.20;0.90;;;;;;;;;;5132891;28;20216;-75
2021/05/25 00:17:04;;;;;;;1.77;0.63;;;;;;;;;;5132607;28;20173;-75
2021/05/25 00:20:09;;;;;;;2.30;0.87;;;;;;;;;;5124154;28;20575;-75
2021/05/25 00:23:14;;;;;;;1.53;0.70;;;;;;;;;;5132161;28;20212;-75
2021/05/25 00:26:18;;;;;;;1.73;0.70;;;;;;;;;;5100113;28;20564;-75
2021/05/25 00:29:32;;;;;;;1.93;0.60;;;;;;;;;;5113754;28;20205;-75
2021/05/25 00:32:38;;;;;;;1.53;0.73;;;;;;;;;;5120651;28;20225;-74
2021/05/25 00:35:43;;;;;;;0.97;0.60;;;;;;;;;;5132947;28;20624;-74
2021/05/25 00:38:47;;;;;;;2.00;0.83;;;;;;;;;;5132443;28;20190;-74
2021/05/25 00:41:51;;;;;;;1.13;0.70;;;;;;;;;;5132703;28;20178;-74
2021/05/25 00:44:55;;;;;;;2.57;1.17;;;;;;;;;;5132540;28;20559;-74
2021/05/25 00:48:00;;;;;;;1.90;0.70;;;;;;;;;;5132648;28;20181;-74
2021/05/25 00:51:04;;;;;;;1.97;0.70;;;;;;;;;;5132372;28;20173;-74
2021/05/25 00:54:08;;;;;;;2.63;0.60;;;;;;;;;;5111729;28;20226;-74
2021/05/25 00:57:13;;;;;;;0.77;0.70;;;;;;;;;;5127089;28;20193;-74
2021/05/25 01:00:20;;;;;;;1.17;0.60;;;;;;;;;;5132234;28;20651;-74
2021/05/25 01:03:24;;;;;;;4.17;0.80;;;;;;;;;;5132163;28;20217;-74
2021/05/25 01:06:29;;;;;;;1.73;0.70;;;;;;;;;;5119664;28;20190;-74
2021/05/25 01:09:34;;;;;;;3.03;0.70;;;;;;;;;;5131528;28;20217;-74
2021/05/25 01:12:50;;;;;;;3.37;1.20;;;;;;;;;;5131466;28;20222;-74
2021/05/25 01:15:54;;;;;;;3.00;0.70;;;;;;;;;;5131510;28;20544;-74
2021/05/25 01:18:59;;;;;;;1.10;0.60;;;;;;;;;;5131678;28;20177;-74
2021/05/25 01:22:03;;;;;;;3.77;1.03;;;;;;;;;;5119858;28;20632;-74
2021/05/25 01:25:14;;;;;;;4.63;0.70;;;;;;;;;;5118760;28;20182;-74
2021/05/25 01:28:20;;;;;;;1.90;0.70;;;;;;;;;;5085963;28;20186;-74
2021/05/25 01:31:25;;;;;;;2.50;1.27;;;;;;;;;;5087731;28;20544;-74
2021/05/25 01:34:29;;;;;;;0.80;0.70;;;;;;;;;;5117843;28;20197;-74
2021/05/25 01:37:33;;;;;;;1.43;0.80;;;;;;;;;;5117748;28;20194;-74
2021/05/25 01:40:38;;;;;;;1.17;0.73;;;;;;;;;;5116353;28;20186;-74
2021/05/25 01:43:42;;;;;;;1.00;0.70;;;;;;;;;;5116157;28;20214;-74
2021/05/25 01:46:48;;;;;;;2.17;1.00;;;;;;;;;;5115870;28;20552;-74
2021/05/25 01:49:52;;;;;;;4.80;0.97;;;;;;;;;;5083739;28;20681;-74
2021/05/25 01:53:07;;;;;;;1.87;0.67;;;;;;;;;;5096056;28;20214;-74
2021/05/25 01:56:11;;;;;;;1.40;0.80;;;;;;;;;;5096197;28;20630;-74
2021/05/25 01:59:16;;;;;;;1.03;0.70;;;;;;;;;;5113321;28;20558;-74
2021/05/25 02:02:20;;;;;;;1.73;0.87;;;;;;;;;;5085568;28;20588;-73
2021/05/25 02:05:24;;;;;;;3.83;0.80;;;;;;;;;;5096188;28;20622;-74
2021/05/25 02:08:29;;;;;;;1.00;0.60;;;;;;;;;;5106995;28;20194;-73
2021/05/25 02:11:36;;;;;;;2.37;1.00;;;;;;;;;;5116259;28;20525;-73
2021/05/25 02:14:40;;;;;;;7.87;1.20;;;;;;;;;;5115233;28;20198;-73
2021/05/25 02:17:44;;;;;;;2.00;0.83;;;;;;;;;;5103704;28;20625;-74
2021/05/25 02:20:50;;;;;;;1.50;0.70;;;;;;;;;;5105518;28;20190;-74
2021/05/25 02:23:55;;;;;;;1.40;0.87;;;;;;;;;;5096007;28;20219;-74
2021/05/25 02:26:59;;;;;;;0.73;0.60;;;;;;;;;;5111850;28;20185;-74
2021/05/25 02:30:05;;;;;;;2.27;0.73;;;;;;;;;;5115772;28;20221;-73
2021/05/25 02:33:12;;;;;;;1.73;1.00;;;;;;;;;;5114546;28;20218;-72
2021/05/25 02:36:16;;;;;;;3.17;0.90;;;;;;;;;;5115681;28;20186;-73
2021/05/25 02:39:20;;;;;;;2.10;0.97;;;;;;;;;;5103424;28;20190;-73
2021/05/25 02:42:24;;;;;;;1.73;0.67;;;;;;;;;;5115482;28;20217;-73
2021/05/25 02:45:29;;;;;;;5.03;0.80;;;;;;;;;;5113800;28;20194;-73
2021/05/25 02:48:33;;;;;;;1.13;0.60;;;;;;;;;;5115599;28;20552;-73
2021/05/25 02:51:37;;;;;;;1.83;1.00;;;;;;;;;;5114358;28;20579;-74
2021/05/25 02:54:42;;;;;;;2.37;0.90;;;;;;;;;;5115479;28;20174;-73
2021/05/25 02:57:47;;;;;;;1.57;0.83;;;;;;;;;;5099184;28;20193;-73
2021/05/25 03:00:51;;;;;;;1.20;0.70;;;;;;;;;;5099317;28;20911;-74
2021/05/25 03:03:55;;;;;;;0.90;0.70;;;;;;;;;;5110695;28;20214;-74
2021/05/25 03:06:59;;;;;;;2.17;0.70;;;;;;;;;;5098816;28;20178;-73
2021/05/25 03:10:06;;;;;;;1.37;0.77;;;;;;;;;;5098689;28;20595;-74
2021/05/25 03:13:10;;;;;;;2.03;0.73;;;;;;;;;;5111189;28;20218;-74
2021/05/25 03:16:16;;;;;;;1.47;0.70;;;;;;;;;;5111445;28;20182;-74
2021/05/25 03:19:20;;;;;;;1.33;0.80;;;;;;;;;;5098357;28;20198;-74
2021/05/25 03:22:25;;;;;;;1.73;0.80;;;;;;;;;;5110961;28;20210;-74
2021/05/25 03:25:29;;;;;;;3.00;0.97;;;;;;;;;;5111034;28;20186;-74
2021/05/25 03:28:34;;;;;;;1.57;0.77;;;;;;;;;;5111087;28;20186;-73
2021/05/25 03:31:38;;;;;;;3.07;0.90;;;;;;;;;;5098186;28;20214;-73
2021/05/25 03:34:43;;;;;;;1.40;0.90;;;;;;;;;;5111137;28;20186;-73
2021/05/25 03:37:48;;;;;;;1.00;0.90;;;;;;;;;;5111034;28;20197;-74
2021/05/25 03:40:53;;;;;;;2.73;1.00;;;;;;;;;;5110682;28;20182;-73
2021/05/25 03:43:59;;;;;;;1.37;0.80;;;;;;;;;;5110093;28;20213;-73
2021/05/25 03:47:03;;;;;;;1.93;0.70;;;;;;;;;;5086795;28;20178;-73
2021/05/25 03:50:08;;;;;;;2.03;0.87;;;;;;;;;;5110529;28;20210;-74
2021/05/25 03:53:12;;;;;;;1.13;0.80;;;;;;;;;;5110454;28;20213;-73
2021/05/25 03:56:20;;;;;;;1.60;0.97;;;;;;;;;;5110097;28;20185;-73
2021/05/25 03:59:24;;;;;;;3.07;0.90;;;;;;;;;;5114450;22;20234;-74
2021/05/25 04:02:30;;;;;;;1.37;0.83;;;;;;;;;;5099392;28;20210;-74
2021/05/25 04:05:34;;;;;;;4.43;1.10;;;;;;;;;;5094031;28;20656;-73
2021/05/25 04:08:39;;;;;;;2.90;1.00;;;;;;;;;;5093400;28;20625;-74
2021/05/25 04:11:43;;;;;;;2.47;0.97;;;;;;;;;;5093372;28;20206;-74
2021/05/25 04:14:47;;;;;;;3.37;1.13;;;;;;;;;;5098858;28;20627;-74
2021/05/25 04:17:53;;;;;;;2.33;1.07;;;;;;;;;;5113320;28;20190;-73
2021/05/25 04:20:57;;;;;;;6.13;1.13;;;;;;;;;;5113381;28;20182;-73
2021/05/25 04:24:01;;;;;;;1.80;0.90;;;;;;;;;;5113201;28;20218;-74
2021/05/25 04:27:05;;;;;;;3.07;0.90;;;;;;;;;;5113205;28;20194;-74
2021/05/25 04:30:11;;;;;;;2.93;1.10;;;;;;;;;;5113552;28;20182;-73
2021/05/25 04:33:15;;;;;;;3.70;0.77;;;;;;;;;;5112973;28;20214;-74
2021/05/25 04:36:19;;;;;;;2.53;0.80;;;;;;;;;;5113568;28;20521;-74
2021/05/25 04:39:23;;;;;;;4.23;1.23;;;;;;;;;;5113617;28;20193;-74
2021/05/25 04:42:28;;;;;;;2.40;0.70;;;;;;;;;;5097298;28;20210;-74
2021/05/25 04:45:32;;;;;;;2.30;0.80;;;;;;;;;;5100706;28;20198;-73
2021/05/25 04:48:37;;;;;;;5.47;1.07;;;;;;;;;;5101008;28;20182;-73
2021/05/25 04:51:41;;;;;;;2.90;1.53;;;;;;;;;;5096669;28;20215;-73
2021/05/25 04:54:46;;;;;;;4.73;0.83;;;;;;;;;;5092841;28;20202;-74
2021/05/25 04:57:51;;;;;;;2.80;0.70;;;;;;;;;;5084236;28;20190;-74
2021/05/25 05:00:55;;;;;;;1.40;0.60;;;;;;;;;;5096734;28;20191;-73
2021/05/25 05:04:00;;;;;;;4.10;0.80;;;;;;;;;;5084072;28;20619;-74
2021/05/25 05:07:04;;;;;;;4.73;0.97;;;;;;;;;;5096728;28;20179;-73
2021/05/25 05:10:09;;;;;;;2.70;0.80;;;;;;;;;;5102743;27;20183;-74
2021/05/25 05:13:13;;;;;;;2.87;0.70;;;;;;;;;;5115079;28;20209;-74
2021/05/25 05:16:18;;;;;;;3.63;0.90;;;;;;;;;;5116091;28;20556;-73
2021/05/25 05:19:22;;;;;;;2.30;0.87;;;;;;;;;;5103815;28;20194;-72
2021/05/25 05:22:26;;;;;;;3.77;1.10;;;;;;;;;;5115613;28;20686;-72
2021/05/25 05:25:30;;;;;;;2.87;0.77;;;;;;;;;;5106281;28;20205;-72
2021/05/25 05:28:34;;;;;;;4.00;1.10;;;;;;;;;;5116473;28;20189;-72
2021/05/25 05:31:40;;;;;;;3.63;1.00;;;;;;;;;;5103744;28;20198;-72
2021/05/25 05:34:44;;;;;;;6.13;1.30;;;;;;;;;;5096483;28;20183;-72
2021/05/25 05:37:49;;;;;;;3.53;1.20;;;;;;;;;;5083720;28;20175;-73
2021/05/25 05:40:55;;;;;;;2.17;1.00;;;;;;;;;;5103305;28;20189;-73
2021/05/25 05:43:59;;;;;;;4.57;0.90;;;;;;;;;;5103576;28;20214;-73
2021/05/25 05:47:03;;;;;;;4.90;1.13;;;;;;;;;;5103286;28;20190;-73
2021/05/25 05:50:11;;;;;;;1.67;0.70;;;;;;;;;;5115710;28;20190;-73
2021/05/25 05:53:15;;;;;;;6.60;1.10;;;;;;;;;;5115823;28;20206;-73
2021/05/25 05:56:19;;;;;;;4.30;1.00;;;;;;;;;;5115613;28;20217;-73
2021/05/25 05:59:23;;;;;;;3.90;1.00;;;;;;;;;;5103348;28;20198;-72
2021/05/25 06:02:27;;;;;;;2.77;0.80;;;;;;;;;;5089002;28;20209;-72
2021/05/25 06:05:31;;;;;;;2.53;1.00;;;;;;;;;;5115933;28;20190;-72
2021/05/25 06:08:36;;;;;;;2.37;1.33;;;;;;;;;;5115561;28;20177;-72
2021/05/25 06:11:40;;;;;;;5.07;2.10;;;;;;;;;;5103251;28;20209;-72
2021/05/25 06:14:44;;;;;;;3.97;1.03;;;;;;;;;;5115585;28;20198;-72
2021/05/25 06:17:49;;;;;;;2.63;1.00;;;;;;;;;;5098742;28;20197;-72
2021/05/25 06:20:53;;;;;;;2.93;0.90;;;;;;;;;;5102925;28;20666;-72
2021/05/25 06:23:57;;;;;;;3.30;1.40;;;;;;;;;;5103401;28;20213;-72
2021/05/25 06:27:02;;;;;;;5.30;1.13;;;;;;;;;;5115493;28;20194;-73
2021/05/25 06:30:08;;;;;;;5.07;1.23;;;;;;;;;;5115024;28;20521;-73
2021/05/25 06:33:12;;;;;;;2.13;0.90;;;;;;;;;;5115142;28;20206;-72
2021/05/25 06:36:16;;;;;;;3.23;0.93;;;;;;;;;;5113306;28;20182;-73
2021/05/25 06:39:21;;;;;;;6.73;4.50;;;;;;;;;;5113711;28;20552;-72
2021/05/25 06:42:25;;;;;;;7.73;1.47;;;;;;;;;;5114896;28;20206;-72
2021/05/25 06:45:30;;;;;;;2.13;0.90;;;;;;;;;;5103742;28;20514;-72
2021/05/25 06:48:34;;;;;;;2.23;1.23;;;;;;;;;;5104908;28;20191;-72
2021/05/25 06:51:38;;;;;;;3.77;0.93;;;;;;;;;;5094565;28;20206;-73
2021/05/25 06:54:43;;;;;;;4.30;1.00;;;;;;;;;;5098211;28;20636;-72
2021/05/25 06:57:47;;;;;;;3.07;0.90;;;;;;;;;;5111174;28;20202;-73
2021/05/25 07:00:51;;;;;;;3.17;1.40;;;;;;;;;;5091354;28;20214;-73
2021/05/25 07:03:56;;;;;;;5.00;0.90;;;;;;;;;;5092758;28;20214;-73
2021/05/25 07:07:00;;;;;;;6.87;2.50;;;;;;;;;;5103572;28;20194;-73
2021/05/25 07:10:06;;;;;;;5.53;0.90;;;;;;;;;;5105268;28;20550;-73
2021/05/25 07:13:12;;;;;;;2.53;1.17;;;;;;;;;;5081463;28;20215;-72
2021/05/25 07:16:17;;;;;;;2.63;0.97;;;;;;;;;;5093464;28;20190;-72
2021/05/25 07:19:21;;;;;;;5.97;1.20;;;;;;;;;;5098901;28;20170;-72
2021/05/25 07:22:26;;;;;;;12.13;1.20;;;;;;;;;;5093762;28;20680;-72
2021/05/25 07:25:29;;;;;;;2.70;1.00;;;;;;;;;;5094057;28;20179;-73
2021/05/25 07:28:34;;;;;;;5.80;1.00;;;;;;;;;;5081347;28;20199;-73
2021/05/25 07:31:38;;;;;;;4.73;0.80;;;;;;;;;;5109358;28;20217;-72
2021/05/25 07:34:42;;;;;;;3.80;0.90;;;;;;;;;;5092204;28;20626;-72
2021/05/25 07:37:46;;;;;;;3.90;1.17;;;;;;;;;;5093730;28;20179;-72
2021/05/25 07:40:50;;;;;;;3.73;0.80;;;;;;;;;;5104339;28;20193;-71
2021/05/25 07:43:54;;;;;;;2.30;0.83;;;;;;;;;;5101362;28;20209;-72
2021/05/25 07:47:00;;;;;;;1.67;0.60;;;;;;;;;;5088869;28;20182;-72
2021/05/25 07:50:15;;;;;;;4.07;0.80;;;;;;;;;;5114129;28;20174;-71
2021/05/25 07:53:19;;;;;;;2.23;0.87;;;;;;;;;;5113796;28;20222;-72
2021/05/25 07:56:24;;;;;;;3.23;1.33;;;;;;;;;;5112116;28;20198;-72
2021/05/25 07:59:29;;;;;;;3.20;2.27;;;;;;;;;;5093473;28;20214;-72
2021/05/25 08:02:33;;;;;;;1.53;0.70;;;;;;;;;;5093563;28;20215;-71
2021/05/25 08:05:37;;;;;;;2.40;0.87;;;;;;;;;;5080800;28;20175;-72
2021/05/25 08:08:41;;;;;;;3.60;0.60;;;;;;;;;;5098443;28;20190;-72
2021/05/25 08:11:46;;;;;;;2.00;0.60;;;;;;;;;;5113400;28;20198;-72
2021/05/25 08:14:52;;;;;;;3.67;0.80;;;;;;;;;;5101176;28;20174;-71
2021/05/25 08:18:06;;;;;;;2.00;0.50;;;;;;;;;;5094791;28;20186;-72
2021/05/25 08:21:11;;;;;;;3.30;1.00;;;;;;;;;;5096645;28;20190;-72
2021/05/25 08:24:16;;;;;;;2.20;0.63;;;;;;;;;;5094164;28;20179;-72
2021/05/25 08:27:20;;;;;;;1.00;0.53;;;;;;;;;;5105883;28;20185;-72
2021/05/25 08:30:27;;;;;;;3.73;0.93;;;;;;;;;;5095415;28;20195;-72
2021/05/25 08:33:32;;;;;;;2.47;0.83;;;;;;;;;;5096974;28;20230;-72
2021/05/25 08:36:36;;;;;;;2.87;0.80;;;;;;;;;;5105281;28;20201;-71
2021/05/25 08:39:40;;;;;;;1.33;0.50;;;;;;;;;;5116815;28;20186;-71
2021/05/25 08:42:46;;;;;;;4.13;0.60;;;;;;;;;;5107392;28;20210;-72
2021/05/25 08:45:51;;;;;;;3.70;0.70;;;;;;;;;;5108416;28;20183;-71
2021/05/25 08:48:56;;;;;;;2.80;1.37;;;;;;;;;;5108288;28;20190;-71
2021/05/25 08:52:02;;;;;;;2.97;1.00;;;;;;;;;;5096917;28;20204;-71
2021/05/25 08:55:08;;;;;;;8.43;0.70;;;;;;;;;;5096955;28;20179;-72
2021/05/25 08:58:13;;;;;;;5.07;1.00;;;;;;;;;;5096549;28;20171;-71
2021/05/25 09:01:18;;;;;;;1.50;0.97;;;;;;;;;;5096854;28;20182;-71
2021/05/25 09:04:22;;;;;;;1.63;0.70;;;;;;;;;;5095709;28;20174;-71
2021/05/25 09:07:48;;;;;;;1.17;0.50;;;;;;;;;;5095855;28;20174;-71
2021/05/25 09:10:58;;;;;;;1.57;0.60;;;;;;;;;;5084423;28;20187;-71
2021/05/25 09:14:07;;;;;;;3.03;0.80;;;;;;;;;;5096306;28;20563;-72
2021/05/25 09:17:23;;;;;;;2.70;0.70;;;;;;;;;;5084136;28;20179;-72
2021/05/25 09:20:46;;;;;;;1.47;0.70;;;;;;;;;;5096413;28;20179;-71
2021/05/25 09:23:50;;;;;;;2.17;0.67;;;;;;;;;;5096340;28;20210;-71
2021/05/25 09:26:58;;;;;;;2.57;0.60;;;;;;;;;;5096058;28;20191;-71
2021/05/25 09:30:12;;;;;;;2.67;0.70;;;;;;;;;;5095803;28;20622;-71
2021/05/25 09:33:17;;;;;;;2.27;0.60;;;;;;;;;;5096057;28;20227;-71
2021/05/25 09:36:24;;;;;;;4.43;0.80;;;;;;;;;;5104041;28;20664;-71
2021/05/25 09:39:30;;;;;;;2.97;0.73;;;;;;;;;;5096153;28;20179;-71
2021/05/25 09:42:34;;;;;;;1.23;0.63;;;;;;;;;;5109196;28;20210;-71
2021/05/25 09:45:54;;;;;;;1.87;0.80;;;;;;;;;;5116682;28;20174;-71
2021/05/25 09:48:58;;;;;;;1.67;0.70;;;;;;;;;;5103870;28;20174;-71
2021/05/25 09:52:11;;;;;;;2.40;0.80;;;;;;;;;;5115835;28;20206;-71
2021/05/25 09:55:16;;;;;;;2.83;0.60;;;;;;;;;;5116175;28;20194;-71
2021/05/25 09:58:34;;;;;;;1.93;0.83;;;;;;;;;;5103422;28;20202;-71
2021/05/25 10:01:38;;;;;;;1.13;0.60;;;;;;;;;;5115843;28;20174;-72
2021/05/25 10:05:15;;;;;;;2.47;0.53;;;;;;;;;;5116038;28;20178;-71
2021/05/25 10:08:22;;;;;;;3.27;0.93;;;;;;;;;;5086091;28;20194;-71
2021/05/25 10:11:28;;;;;;;2.63;0.80;;;;;;;;;;5115919;28;20174;-71
2021/05/25 10:14:32;;;;;;;3.70;0.63;;;;;;;;;;5115802;28;20170;-71
2021/05/25 10:20:46;;;;;;;4.00;0.90;;;;;;;;;;5115699;28;20179;-71
2021/05/25 10:23:50;;;;;;;3.63;0.77;;;;;;;;;;5115622;28;20210;-71
2021/05/25 10:26:54;;;;;;;2.43;0.60;;;;;;;;;;5099088;28;20182;-73
2021/05/25 10:29:58;;;;;;;2.73;0.50;;;;;;;;;;5112092;28;20166;-72
2021/05/25 10:33:06;;;;;;;3.83;0.80;;;;;;;;;;5111810;28;20217;-73
2021/05/25 10:36:10;;;;;;;2.13;0.80;;;;;;;;;;5099399;28;20182;-73
2021/05/25 10:39:39;;;;;;;2.40;0.90;;;;;;;;;;5111200;28;20198;-73
2021/05/25 10:42:43;;;;;;;0.80;0.50;;;;;;;;;;5083841;28;20218;-72
2021/05/25 10:45:47;;;;;;;3.17;0.73;;;;;;;;;;5096748;28;20194;-72
2021/05/25 10:48:55;;;;;;;1.23;0.60;;;;;;;;;;5111693;28;20632;-73
2021/05/25 10:52:06;;;;;;;2.63;0.97;;;;;;;;;;5098938;28;20190;-72
2021/05/25 10:55:26;;;;;;;4.40;0.70;;;;;;;;;;5098302;28;20644;-72
2021/05/25 10:58:31;;;;;;;2.33;1.10;;;;;;;;;;5110416;28;20206;-73
2021/05/25 11:01:36;;;;;;;6.40;3.00;;;;;;;;;;5113867;28;20534;-72
2021/05/25 11:04:40;;;;;;;6.93;3.23;;;;;;;;;;5109818;28;20183;-71
2021/05/25 11:07:44;;;;;;;3.90;0.83;;;;;;;;;;5094583;28;20183;-71
2021/05/25 11:10:57;;;;;;;3.77;1.10;;;;;;;;;;5094389;28;20178;-71
2021/05/25 11:14:09;;;;;;;1.90;1.00;;;;;;;;;;5102211;28;20225;-71
2021/05/25 11:17:31;;;;;;;5.93;0.80;;;;;;;;;;5099831;28;20190;-71
2021/05/25 11:20:53;;;;;;;5.20;1.33;;;;;;;;;;5095237;28;20553;-71
2021/05/25 11:23:58;;;;;;;2.23;0.97;;;;;;;;;;5095958;28;20218;-72
2021/05/25 11:27:41;;;;;;;3.77;0.67;;;;;;;;;;5105531;28;20190;-72
2021/05/25 11:30:45;;;;;;;3.07;0.73;;;;;;;;;;5101929;28;20206;-71
2021/05/25 11:33:51;;;;;;;4.10;0.90;;;;;;;;;;5100962;28;20222;-71
2021/05/25 11:36:57;;;;;;;3.00;0.70;;;;;;;;;;5111359;28;20186;-71
2021/05/25 11:40:06;;;;;;;3.40;0.87;;;;;;;;;;5093842;28;20198;-72
2021/05/25 11:43:10;;;;;;;1.57;0.67;;;;;;;;;;5093489;28;20689;-72
2021/05/25 11:46:15;;;;;;;2.33;0.60;;;;;;;;;;5081383;28;20526;-72
2021/05/25 11:49:19;;;;;;;3.50;0.90;;;;;;;;;;5109223;28;20193;-72
2021/05/25 11:52:43;;;;;;;2.27;0.90;;;;;;;;;;5101164;28;20210;-72
2021/05/25 11:55:49;;;;;;;3.83;0.83;;;;;;;;;;5114015;28;20189;-72
2021/05/25 11:58:59;;;;;;;1.77;0.60;;;;;;;;;;5113100;28;20197;-72
2021/05/25 12:02:06;;;;;;;4.73;0.90;;;;;;;;;;5072765;28;20222;-71
2021/05/25 12:05:20;;;;;;;3.47;0.73;;;;;;;;;;5102625;28;20186;-71
2021/05/25 12:08:25;;;;;;;7.93;0.77;;;;;;;;;;5093558;28;20514;-71
2021/05/25 12:11:37;;;;;;;1.10;0.60;;;;;;;;;;5110483;28;20193;-71
2021/05/25 12:14:41;;;;;;;3.13;0.67;;;;;;;;;;5114000;28;20202;-71
2021/05/25 12:17:48;;;;;;;1.43;0.60;;;;;;;;;;5099526;28;20178;-71
2021/05/25 12:20:54;;;;;;;3.27;0.67;;;;;;;;;;5109988;28;20190;-71
2021/05/25 12:23:58;;;;;;;3.57;0.70;;;;;;;;;;5093060;28;20214;-71
2021/05/25 12:27:02;;;;;;;1.70;0.63;;;;;;;;;;5093094;28;20178;-71
2021/05/25 12:30:08;;;;;;;2.37;0.80;;;;;;;;;;5093313;28;20183;-71
2021/05/25 12:33:20;;;;;;;1.37;0.57;;;;;;;;;;5113123;28;20229;-71
2021/05/25 12:36:37;;;;;;;3.20;0.70;;;;;;;;;;5113959;28;20178;-71
2021/05/25 12:39:41;;;;;;;2.73;0.67;;;;;;;;;;5113680;28;20186;-71
2021/05/25 12:42:46;;;;;;;2.70;0.60;;;;;;;;;;5113383;28;20680;-71
2021/05/25 12:45:52;;;;;;;2.83;0.70;;;;;;;;;;5093549;28;20186;-71
2021/05/25 12:48:57;;;;;;;1.60;0.53;;;;;;;;;;5092868;28;20198;-71
2021/05/25 12:52:24;;;;;;;2.00;0.60;;;;;;;;;;5104774;28;20198;-71
2021/05/25 12:55:29;;;;;;;2.63;0.67;;;;;;;;;;5089338;28;20171;-71
2021/05/25 12:58:40;;;;;;;2.97;0.50;;;;;;;;;;5113190;28;20217;-72
2021/05/25 13:01:44;;;;;;;2.17;0.60;;;;;;;;;;5100820;28;20216;-71
2021/05/25 13:05:03;;;;;;;0.97;0.50;;;;;;;;;;5091822;28;20649;-72
2021/05/25 13:08:08;;;;;;;1.23;0.50;;;;;;;;;;5092970;28;20175;-71
2021/05/25 13:11:13;;;;;;;1.10;0.47;;;;;;;;;;5093197;28;20523;-72
2021/05/25 13:14:18;;;;;;;1.90;0.80;;;;;;;;;;5092526;28;20210;-72
2021/05/25 13:17:23;;;;;;;1.77;0.47;;;;;;;;;;5094089;28;20524;-72
2021/05/25 13:20:28;;;;;;;4.17;0.80;;;;;;;;;;5088710;28;20186;-72
2021/05/25 13:23:33;;;;;;;5.97;0.70;;;;;;;;;;5116566;28;20213;-72
2021/05/25 13:26:40;;;;;;;3.43;0.90;;;;;;;;;;5104251;28;20174;-72
2021/05/25 13:30:04;;;;;;;3.27;0.53;;;;;;;;;;5107058;28;20194;-72
2021/05/25 13:33:08;;;;;;;3.07;0.50;;;;;;;;;;5105842;28;20222;-73
2021/05/25 13:36:13;;;;;;;1.70;0.57;;;;;;;;;;5116984;28;20182;-72
2021/05/25 13:39:18;;;;;;;2.93;0.77;;;;;;;;;;5103206;28;20529;-72
2021/05/25 13:42:23;;;;;;;2.77;0.60;;;;;;;;;;5083604;28;20214;-72
2021/05/25 13:45:27;;;;;;;4.30;0.90;;;;;;;;;;5108477;28;20170;-72
2021/05/25 13:48:31;;;;;;;1.50;0.60;;;;;;;;;;5096921;28;20187;-74
2021/05/25 13:51:37;;;;;;;2.30;0.60;;;;;;;;;;5106292;28;20644;-74
2021/05/25 13:54:41;;;;;;;3.13;0.87;;;;;;;;;;5111017;28;20210;-74
2021/05/25 13:57:47;;;;;;;2.70;0.70;;;;;;;;;;5093803;28;20183;-75
2021/05/25 14:04:15;;;;;;;2.37;0.70;;;;;;;;;;5094234;28;20183;-75
2021/05/25 14:07:19;;;;;;;1.57;0.50;;;;;;;;;;5116387;28;20178;-75
2021/05/25 14:10:24;;;;;;;2.60;0.60;;;;;;;;;;5116469;28;20621;-74
2021/05/25 14:13:30;;;;;;;3.63;0.80;;;;;;;;;;5103873;28;20223;-74
2021/05/25 14:16:34;;;;;;;3.00;0.70;;;;;;;;;;5109480;28;20194;-74
2021/05/25 14:19:38;;;;;;;2.87;0.90;;;;;;;;;;5115659;28;20530;-75
2021/05/25 14:22:42;;;;;;;11.87;1.00;;;;;;;;;;5092731;28;20217;-75
2021/05/25 14:25:47;;;;;;;2.30;0.60;;;;;;;;;;5105054;28;20186;-75
2021/05/25 14:28:52;;;;;;;2.13;0.80;;;;;;;;;;5115060;28;20653;-75
2021/05/25 14:31:56;;;;;;;2.03;0.60;;;;;;;;;;5102684;28;20194;-75
2021/05/25 14:35:00;;;;;;;6.47;0.70;;;;;;;;;;5115019;28;20206;-75
2021/05/25 14:38:04;;;;;;;1.10;0.50;;;;;;;;;;5114971;28;20190;-75
2021/05/25 14:41:09;;;;;;;3.07;0.70;;;;;;;;;;5108924;28;20191;-75
2021/05/25 14:44:13;;;;;;;2.57;0.53;;;;;;;;;;5094676;28;20511;-75
2021/05/25 14:47:17;;;;;;;1.93;0.57;;;;;;;;;;5107633;28;20190;-75
2021/05/25 14:50:24;;;;;;;3.10;0.70;;;;;;;;;;5115231;28;20178;-75
2021/05/25 14:56:37;;;;;;;2.43;0.67;;;;;;;;;;5098659;28;20182;-75
2021/05/25 14:59:42;;;;;;;3.47;0.63;;;;;;;;;;5111793;28;20214;-76
2021/05/25 15:02:57;;;;;;;2.67;1.00;;;;;;;;;;5099223;28;20214;-75
2021/05/25 15:06:07;;;;;;;1.30;0.67;;;;;;;;;;5111047;28;20170;-75
2021/05/25 15:09:25;;;;;;;2.93;0.63;;;;;;;;;;5110485;28;20170;-76
2021/05/25 15:12:29;;;;;;;3.57;0.90;;;;;;;;;;5109012;28;20213;-75
2021/05/25 15:15:34;;;;;;;1.97;0.80;;;;;;;;;;5078960;28;20202;-76
2021/05/25 15:18:39;;;;;;;2.17;0.60;;;;;;;;;;5096939;28;20190;-74
2021/05/25 15:21:44;;;;;;;1.73;0.50;;;;;;;;;;5110916;28;20656;-74
2021/05/25 15:24:49;;;;;;;3.93;1.00;;;;;;;;;;5091608;28;20530;-75
2021/05/25 15:27:53;;;;;;;3.03;0.70;;;;;;;;;;5108237;28;20197;-75
2021/05/25 15:30:58;;;;;;;1.80;0.80;;;;;;;;;;5107122;28;20178;-75
2021/05/25 15:34:03;;;;;;;2.17;0.70;;;;;;;;;;5101369;28;20217;-76
2021/05/25 15:37:06;;;;;;;3.83;0.73;;;;;;;;;;5111688;28;20182;-75
2021/05/25 15:40:12;;;;;;;1.80;0.57;;;;;;;;;;5094764;28;20183;-75
2021/05/25 15:43:17;;;;;;;1.87;0.70;;;;;;;;;;5088877;28;20210;-75
2021/05/25 15:46:21;;;;;;;3.37;0.73;;;;;;;;;;5095350;28;20186;-75
2021/05/25 15:49:25;;;;;;;2.50;0.73;;;;;;;;;;5098930;28;20189;-76
2021/05/25 15:52:30;;;;;;;2.43;0.60;;;;;;;;;;5111507;28;20217;-76
2021/05/25 15:55:36;;;;;;;3.37;0.87;;;;;;;;;;5083492;28;20411;-76
2021/05/25 15:58:40;;;;;;;3.30;0.87;;;;;;;;;;5089501;28;20210;-76
2021/05/25 16:01:45;;;;;;;2.27;0.80;;;;;;;;;;5089687;28;20202;-75
2021/05/25 16:04:49;;;;;;;2.00;0.60;;;;;;;;;;5089570;28;20646;-75
2021/05/25 16:07:55;;;;;;;5.73;0.80;;;;;;;;;;5109657;28;20538;-75
2021/05/25 16:11:03;;;;;;;1.50;0.70;;;;;;;;;;5110655;28;20186;-76
2021/05/25 16:14:09;;;;;;;1.90;0.80;;;;;;;;;;5110076;28;20225;-75
2021/05/25 16:17:13;;;;;;;1.47;0.70;;;;;;;;;;5095762;28;20664;-75
2021/05/25 16:20:20;;;;;;;2.07;0.50;;;;;;;;;;5109924;28;20518;-75
2021/05/25 16:23:24;;;;;;;2.60;0.73;;;;;;;;;;5095307;28;20489;-75
2021/05/25 16:26:28;;;;;;;3.83;0.70;;;;;;;;;;5086669;28;20186;-76
2021/05/25 16:29:32;;;;;;;4.20;0.60;;;;;;;;;;5087013;28;20174;-75
2021/05/25 16:32:37;;;;;;;1.87;0.60;;;;;;;;;;5090559;28;20214;-75
2021/05/25 16:35:41;;;;;;;2.40;0.63;;;;;;;;;;5090706;28;20547;-75
2021/05/25 16:38:46;;;;;;;1.87;0.60;;;;;;;;;;5089573;28;20724;-75
2021/05/25 16:41:50;;;;;;;3.60;0.80;;;;;;;;;;5101836;28;20186;-77
2021/05/25 16:44:54;;;;;;;2.77;0.70;;;;;;;;;;5083918;28;20225;-78
2021/05/25 16:47:59;;;;;;;1.37;0.57;;;;;;;;;;5098369;28;20194;-78
2021/05/25 16:51:03;;;;;;;0.97;0.60;;;;;;;;;;5073257;28;20646;-78
2021/05/25 16:54:07;;;;;;;3.50;0.70;;;;;;;;;;5086123;28;20545;-76
2021/05/25 16:57:11;;;;;;;2.40;0.60;;;;;;;;;;5088334;28;20198;-77
2021/05/25 17:07:36;;;;;;;3.47;0.87;;;;;;;;;;5055000;28;20180;-74
2021/05/25 17:20:28;;;;;;;1.37;0.70;;;;;;;;;;5112819;28;20182;-74
2021/05/25 17:23:34;;;;;;;2.50;1.10;;;;;;;;;;5112900;28;20221;-74
2021/05/25 17:26:43;;;;;;;2.33;0.80;;;;;;;;;;5112895;28;20181;-74
2021/05/25 17:29:47;;;;;;;2.03;0.90;;;;;;;;;;5113074;28;20182;-74
2021/05/25 17:32:52;;;;;;;1.93;0.70;;;;;;;;;;5112469;28;20576;-73
2021/05/25 17:36:04;;;;;;;5.50;0.90;;;;;;;;;;5112553;28;20210;-74
2021/05/25 17:39:11;;;;;;;2.33;0.83;;;;;;;;;;5112844;28;20178;-73
2021/05/25 17:42:16;;;;;;;3.17;0.97;;;;;;;;;;5112744;28;20218;-73
2021/05/25 17:45:21;;;;;;;2.93;0.80;;;;;;;;;;5112155;28;20510;-74
2021/05/25 17:48:25;;;;;;;1.83;0.60;;;;;;;;;;5112554;28;20660;-74
2021/05/25 17:51:30;;;;;;;3.77;0.90;;;;;;;;;;5088127;28;20194;-74
2021/05/25 17:54:35;;;;;;;2.17;0.83;;;;;;;;;;5101307;28;20223;-73
2021/05/25 17:57:43;;;;;;;4.03;0.90;;;;;;;;;;5091576;28;20186;-73
2021/05/25 18:00:48;;;;;;;2.17;0.70;;;;;;;;;;5092030;28;20171;-73
2021/05/25 18:03:52;;;;;;;1.90;0.63;;;;;;;;;;5097400;28;20225;-72
2021/05/25 18:07:00;;;;;;;3.67;0.70;;;;;;;;;;5099776;28;20178;-72
2021/05/25 18:10:08;;;;;;;1.30;0.60;;;;;;;;;;5107763;28;20190;-73
2021/05/25 18:13:13;;;;;;;5.33;0.80;;;;;;;;;;5095776;28;20218;-73
2021/05/25 18:16:17;;;;;;;5.97;0.90;;;;;;;;;;5091815;28;20202;-73
2021/05/25 18:19:22;;;;;;;2.43;0.70;;;;;;;;;;5102109;28;20186;-72
2021/05/25 18:22:26;;;;;;;1.87;0.70;;;;;;;;;;5111505;28;20217;-72
2021/05/25 18:25:30;;;;;;;0.73;0.53;;;;;;;;;;5095266;28;20182;-72
2021/05/25 18:28:35;;;;;;;2.13;0.70;;;;;;;;;;5103949;28;20194;-72
2021/05/25 18:31:41;;;;;;;2.27;0.77;;;;;;;;;;5111825;28;20518;-73
2021/05/25 18:44:58;;;;;;;0.97;0.70;;;;;;;;;;5106188;28;20186;-72
2021/05/25 18:48:03;;;;;;;2.17;0.90;;;;;;;;;;5110988;28;20193;-72
2021/05/25 18:51:07;;;;;;;3.20;0.77;;;;;;;;;;5091044;28;20175;-72
2021/05/25 18:54:12;;;;;;;3.53;1.03;;;;;;;;;;5100340;28;20213;-72
2021/05/25 18:57:29;;;;;;;1.30;0.83;;;;;;;;;;5098576;28;20182;-72
2021/05/25 19:00:33;;;;;;;1.60;0.60;;;;;;;;;;5086996;28;20206;-72
2021/05/25 19:03:38;;;;;;;1.17;0.80;;;;;;;;;;5110904;28;20218;-72
2021/05/25 19:06:43;;;;;;;1.77;0.80;;;;;;;;;;5110805;28;20186;-74
2021/05/25 19:09:49;;;;;;;1.67;0.80;;;;;;;;;;5098302;28;20612;-74
2021/05/25 19:12:53;;;;;;;3.03;1.00;;;;;;;;;;5110995;28;20214;-74